Time;durP1;ratioP1;P1;durP2;ratioP2;P2;SDS_P1;SDS_P2;PMS_P1;PMS_P2;Temp;Humidity;BMP_temperature;BMP_pressure;BME280_temperature;BME280_humidity;BME280_pressure;Samples;Min_cycle;Max_cycle;Signal;HPM_P1;HPM_P2
2022/09/18 00:01:54;;;;;;;2.28;0.40;;;;;;;14.24;59.61;101682.44;7393168;19;20237;-84
2022/09/18 00:04:22;;;;;;;1.40;0.43;;;;;;;14.25;59.58;101681.44;7390991;19;20032;-83
2022/09/18 00:06:51;;;;;;;3.55;0.30;;;;;;;14.24;59.80;101688.56;7394370;19;20018;-83
2022/09/18 00:09:18;;;;;;;2.97;0.30;;;;;;;14.24;59.68;101679.78;7389828;19;20022;-84
2022/09/18 00:11:48;;;;;;;2.40;0.30;;;;;;;14.23;59.57;101678.94;7392564;19;20472;-84
2022/09/18 00:14:19;;;;;;;2.10;0.30;;;;;;;14.22;59.87;101676.47;7390183;19;20047;-85
2022/09/18 00:16:47;;;;;;;2.70;0.30;;;;;;;14.19;60.38;101672.31;7385966;19;20162;-84
2022/09/18 00:19:16;;;;;;;1.13;0.30;;;;;;;14.19;60.42;101668.81;7388223;19;20006;-86
2022/09/18 00:21:48;;;;;;;1.33;0.20;;;;;;;14.16;60.63;101670.00;7389405;19;20017;-84
2022/09/18 00:24:17;;;;;;;1.63;0.20;;;;;;;14.16;60.67;101672.63;7389466;19;20611;-85
2022/09/18 00:26:46;;;;;;;0.55;0.10;;;;;;;14.14;61.01;101679.88;7389231;19;20017;-83
2022/09/18 00:29:16;;;;;;;1.52;0.20;;;;;;;14.16;61.27;101677.09;7390483;19;20511;-85
2022/09/18 00:31:44;;;;;;;2.42;0.20;;;;;;;14.13;61.06;101670.28;7393636;19;20013;-86
2022/09/18 00:34:14;;;;;;;2.38;0.20;;;;;;;14.15;61.41;101681.56;7391833;19;20022;-84
2022/09/18 00:36:42;;;;;;;1.08;0.17;;;;;;;14.17;61.53;101679.56;7393775;19;20043;-84
2022/09/18 00:39:10;;;;;;;1.70;0.20;;;;;;;14.16;61.58;101679.75;7390570;19;20025;-85
2022/09/18 00:41:40;;;;;;;2.30;0.30;;;;;;;14.14;61.97;101672.78;7389062;19;20025;-85
2022/09/18 00:44:43;;;;;;;1.50;0.30;;;;;;;14.15;62.15;101678.91;7388235;19;20006;-85
2022/09/18 00:47:11;;;;;;;1.17;0.20;;;;;;;14.16;62.65;101679.75;7387125;19;20345;-84
2022/09/18 00:49:46;;;;;;;2.88;0.50;;;;;;;14.14;62.59;101674.59;7384315;19;20033;-85
2022/09/18 00:52:16;;;;;;;1.38;0.28;;;;;;;14.10;62.58;101666.13;7371961;19;20010;-85
2022/09/18 00:54:51;;;;;;;1.13;0.28;;;;;;;14.08;62.68;101683.97;7375401;19;20040;-84
2022/09/18 00:57:34;;;;;;;0.85;0.20;;;;;;;14.06;63.07;101675.38;7383398;19;20381;-84
2022/09/18 01:00:04;;;;;;;;;;;;;;;14.08;63.40;101672.56;7386943;19;20029;-85
2022/09/18 01:02:31;;;;;;;3.55;0.40;;;;;;;14.05;63.00;101672.88;7387455;19;19919;-85
2022/09/18 01:04:59;;;;;;;2.45;0.30;;;;;;;14.03;63.21;101672.19;7385243;19;20015;-84
2022/09/18 01:07:51;;;;;;;1.70;0.28;;;;;;;14.04;63.05;101677.34;7381432;19;20014;-84
2022/09/18 01:10:28;;;;;;;1.92;0.30;;;;;;;14.01;63.09;101674.19;7383369;19;20019;-84
2022/09/18 01:13:00;;;;;;;2.40;0.40;;;;;;;14.01;63.67;101669.72;7383417;19;20035;-84
2022/09/18 01:15:48;;;;;;;2.60;0.30;;;;;;;14.02;63.79;101673.16;7387470;19;20017;-83
2022/09/18 01:18:38;;;;;;;2.00;0.30;;;;;;;14.00;63.55;101680.44;7383463;19;20010;-84
2022/09/18 01:21:34;;;;;;;1.23;0.30;;;;;;;13.97;63.43;101680.75;7383779;19;20018;-85
2022/09/18 01:24:33;;;;;;;2.95;0.30;;;;;;;13.95;63.59;101682.72;7385267;19;20543;-83
2022/09/18 01:27:06;;;;;;;2.30;0.30;;;;;;;13.90;64.06;101677.91;7385256;19;20496;-84
2022/09/18 01:29:39;;;;;;;1.77;0.30;;;;;;;13.88;64.08;101679.84;7382276;19;20018;-84
2022/09/18 01:32:21;;;;;;;1.02;0.20;;;;;;;13.89;64.29;101678.03;7381784;19;20038;-86
2022/09/18 01:35:04;;;;;;;3.10;0.30;;;;;;;13.90;64.02;101677.06;7384981;19;20452;-83
2022/09/18 01:38:06;;;;;;;3.42;0.45;;;;;;;13.91;64.10;101682.22;7379440;19;20626;-84
2022/09/18 01:40:43;;;;;;;1.80;0.30;;;;;;;13.91;64.57;101678.72;7384635;19;20014;-84
2022/09/18 01:43:15;;;;;;;0.82;0.20;;;;;;;13.93;64.32;101674.94;7382116;19;20018;-84
2022/09/18 01:45:46;;;;;;;2.90;0.30;;;;;;;13.94;64.03;101673.13;7390088;19;20346;-84
2022/09/18 01:48:24;;;;;;;1.98;0.30;;;;;;;13.93;63.73;101674.09;7387018;19;20011;-84
2022/09/18 01:50:59;;;;;;;0.80;0.20;;;;;;;13.92;63.87;101667.97;7388530;19;20015;-84
2022/09/18 01:53:32;;;;;;;2.88;0.30;;;;;;;13.93;63.86;101663.50;7388254;19;20017;-84
2022/09/18 01:56:11;;;;;;;;;;;;;;;13.91;63.96;101660.22;7386095;19;20507;-84
2022/09/18 01:58:39;;;;;;;1.90;0.30;;;;;;;13.90;64.37;101666.47;7388055;19;20345;-84
2022/09/18 02:01:16;;;;;;;3.03;0.30;;;;;;;13.88;64.28;101663.16;7388400;19;20014;-84
2022/09/18 02:04:01;;;;;;;2.97;0.20;;;;;;;13.88;64.57;101660.50;7388200;19;20376;-83
2022/09/18 02:06:34;;;;;;;1.58;0.30;;;;;;;13.87;64.58;101661.47;7388817;19;20014;-83
2022/09/18 02:09:02;;;;;;;0.70;0.20;;;;;;;13.88;64.57;101652.56;7388995;19;20014;-83
2022/09/18 02:11:33;;;;;;;3.13;0.20;;;;;;;13.89;64.53;101655.06;7386205;19;20014;-83
2022/09/18 02:14:07;;;;;;;1.35;0.30;;;;;;;13.90;64.46;101642.66;7386165;19;20338;-84
2022/09/18 02:16:44;;;;;;;3.92;0.10;;;;;;;13.89;64.88;101644.47;7385700;19;20010;-83
2022/09/18 02:19:28;;;;;;;3.15;0.30;;;;;;;13.87;64.75;101635.84;7384719;19;20039;-83
2022/09/18 02:21:57;;;;;;;;;;;;;;;13.87;64.85;101635.84;7388113;19;20365;-83
2022/09/18 02:24:31;;;;;;;0.98;0.20;;;;;;;13.82;64.82;101627.56;7386821;19;20314;-84
2022/09/18 02:27:00;;;;;;;1.02;0.28;;;;;;;13.84;65.73;101635.34;7385662;19;20017;-85
2022/09/18 02:29:29;;;;;;;1.45;0.20;;;;;;;13.85;66.11;101624.63;7386466;19;20011;-84
2022/09/18 02:31:59;;;;;;;4.22;0.20;;;;;;;13.87;65.58;101638.50;7385895;19;20047;-83
2022/09/18 02:34:27;;;;;;;4.50;0.22;;;;;;;13.87;65.64;101630.56;7385831;19;20035;-83
2022/09/18 02:37:21;;;;;;;0.77;0.20;;;;;;;13.88;65.76;101634.88;7387225;19;20503;-83
2022/09/18 02:40:14;;;;;;;1.83;0.20;;;;;;;13.87;65.47;101632.38;7386752;19;20045;-83
2022/09/18 02:42:55;;;;;;;2.22;0.20;;;;;;;13.87;65.57;101638.50;7382180;19;20019;-83
2022/09/18 02:45:36;;;;;;;1.90;0.20;;;;;;;13.85;65.71;101637.00;7382505;19;20411;-84
2022/09/18 02:48:15;;;;;;;1.27;0.20;;;;;;;13.83;66.07;101637.16;7384819;19;20561;-84
2022/09/18 02:50:55;;;;;;;0.80;0.25;;;;;;;13.81;66.19;101640.94;7384637;19;20010;-84
2022/09/18 02:53:34;;;;;;;1.55;0.20;;;;;;;13.80;66.59;101629.53;7384695;19;20021;-84
2022/09/18 02:56:16;;;;;;;1.92;0.30;;;;;;;13.81;66.25;101636.50;7383751;19;20015;-85
2022/09/18 02:58:44;;;;;;;;;;;;;;;13.82;66.68;101632.84;7385976;19;20384;-83
2022/09/18 03:01:13;;;;;;;2.45;0.55;;;;;;;13.78;66.74;101628.00;7381956;19;19971;-83
2022/09/18 03:03:41;;;;;;;3.25;0.20;;;;;;;13.77;66.71;101632.47;7380113;19;20037;-83
2022/09/18 03:06:08;;;;;;;4.13;0.25;;;;;;;13.76;66.62;101633.47;7384293;19;20483;-84
2022/09/18 03:08:36;;;;;;;1.48;0.20;;;;;;;13.76;66.93;101624.72;7380487;19;20718;-83
2022/09/18 03:11:04;;;;;;;4.72;0.30;;;;;;;13.76;67.11;101624.72;7377834;19;20532;-83
2022/09/18 03:13:31;;;;;;;3.20;0.30;;;;;;;13.75;67.06;101615.09;7380015;19;20013;-83
2022/09/18 03:16:05;;;;;;;0.93;0.20;;;;;;;13.74;67.18;101603.69;7381281;19;20017;-82
2022/09/18 03:18:32;;;;;;;2.08;0.22;;;;;;;13.75;67.22;101607.19;7378996;19;20236;-85
2022/09/18 03:21:00;;;;;;;1.27;0.30;;;;;;;13.74;66.79;101605.50;7379760;19;20022;-83
2022/09/18 03:23:27;;;;;;;1.63;0.30;;;;;;;13.73;67.02;101604.66;7383072;19;20014;-83
2022/09/18 03:26:08;;;;;;;1.92;0.30;;;;;;;13.74;67.05;101593.13;7383373;19;20027;-83
2022/09/18 03:28:35;;;;;;;3.65;0.40;;;;;;;13.75;67.74;101602.72;7379303;19;20019;-83
2022/09/18 03:31:04;;;;;;;1.38;0.30;;;;;;;13.76;67.40;101601.75;7379284;19;20022;-84
2022/09/18 03:33:31;;;;;;;2.75;0.30;;;;;;;13.75;67.41;101600.06;7380348;19;20026;-83
2022/09/18 03:36:04;;;;;;;1.08;0.20;;;;;;;13.73;67.36;101602.03;7381058;19;20007;-84
2022/09/18 03:38:33;;;;;;;2.05;0.25;;;;;;;13.74;67.45;101594.94;7381859;19;20022;-84
2022/09/18 03:41:00;;;;;;;3.10;0.40;;;;;;;13.75;67.49;101593.94;7378324;19;20011;-84
2022/09/18 03:43:27;;;;;;;2.13;0.22;;;;;;;13.70;67.60;101600.53;7375074;19;20022;-86
2022/09/18 03:46:01;;;;;;;2.10;0.30;;;;;;;13.66;67.96;101593.88;7375157;19;20015;-82
2022/09/18 03:48:32;;;;;;;3.15;0.30;;;;;;;13.64;67.81;101590.56;7376789;19;20372;-84
2022/09/18 03:51:00;;;;;;;1.25;0.30;;;;;;;13.61;68.13;101590.06;7377467;19;20014;-83
2022/09/18 03:53:27;;;;;;;0.90;0.30;;;;;;;13.60;68.42;101598.97;7383950;19;20081;-84
2022/09/18 03:56:13;;;;;;;3.25;0.30;;;;;;;13.63;68.52;101598.66;7383983;19;20372;-83
2022/09/18 03:58:40;;;;;;;2.67;0.30;;;;;;;13.63;68.23;101593.34;7385964;19;20564;-83
2022/09/18 04:01:09;;;;;;;1.25;0.30;;;;;;;13.64;68.56;101603.78;7391510;19;20021;-83
2022/09/18 04:03:36;;;;;;;2.38;0.45;;;;;;;13.65;68.82;101601.97;7389474;19;20010;-85
2022/09/18 04:06:04;;;;;;;2.78;0.40;;;;;;;13.65;68.45;101596.69;7389753;19;20040;-83
2022/09/18 04:08:36;;;;;;;2.42;0.30;;;;;;;13.62;68.57;101597.81;7389286;19;20074;-83
2022/09/18 04:11:05;;;;;;;0.80;0.20;;;;;;;13.59;68.62;101592.00;7390053;19;20361;-83
2022/09/18 04:13:33;;;;;;;4.15;0.57;;;;;;;13.57;68.88;101591.31;7387509;19;20018;-83
2022/09/18 04:16:05;;;;;;;2.65;0.50;;;;;;;13.56;69.08;101597.63;7391082;19;20018;-83
2022/09/18 04:18:33;;;;;;;2.38;0.30;;;;;;;13.58;68.84;101592.97;7390402;19;20015;-83
2022/09/18 04:21:00;;;;;;;1.17;0.30;;;;;;;13.59;69.04;101590.19;7390964;19;20014;-84
2022/09/18 04:23:28;;;;;;;3.03;0.40;;;;;;;13.58;68.83;101585.88;7392069;19;20014;-83
2022/09/18 04:26:11;;;;;;;2.38;0.38;;;;;;;13.61;68.88;101592.69;7390075;19;20006;-84
2022/09/18 04:28:38;;;;;;;0.98;0.30;;;;;;;13.58;68.99;101593.81;7390836;19;20352;-82
2022/09/18 04:31:08;;;;;;;3.05;0.30;;;;;;;13.58;69.25;101591.19;7389326;19;20126;-84
2022/09/18 04:33:36;;;;;;;0.95;0.20;;;;;;;13.56;69.48;101605.53;7386970;19;20010;-83
2022/09/18 04:36:07;;;;;;;1.23;0.40;;;;;;;13.52;69.03;101598.88;7389209;19;20027;-82
2022/09/18 04:38:34;;;;;;;2.83;0.35;;;;;;;13.50;69.57;101600.88;7390036;19;20057;-83
2022/09/18 04:41:02;;;;;;;4.50;0.20;;;;;;;13.48;69.39;101597.53;7391337;19;20485;-83
2022/09/18 04:43:29;;;;;;;1.85;0.25;;;;;;;13.45;70.01;101589.91;7388646;19;20014;-83
2022/09/18 04:46:08;;;;;;;0.77;0.20;;;;;;;13.46;71.12;101586.28;7384792;19;20407;-84
2022/09/18 04:48:36;;;;;;;1.48;0.40;;;;;;;13.42;70.09;101590.19;7388454;19;20021;-83
2022/09/18 04:51:03;;;;;;;2.05;0.52;;;;;;;13.42;70.57;101590.19;7389596;19;20015;-84
2022/09/18 04:53:31;;;;;;;2.22;0.30;;;;;;;13.39;70.59;101582.59;7388570;19;20034;-84
2022/09/18 04:56:10;;;;;;;0.88;0.30;;;;;;;13.39;70.36;101586.06;7389595;19;20006;-83
2022/09/18 04:58:37;;;;;;;2.05;0.30;;;;;;;13.35;70.17;101590.00;7384327;19;20020;-84
2022/09/18 05:01:05;;;;;;;1.42;0.38;;;;;;;13.37;71.86;101592.47;7387577;19;20484;-84
2022/09/18 05:03:34;;;;;;;2.05;0.30;;;;;;;13.37;71.30;101592.47;7389181;19;20011;-84
2022/09/18 05:06:05;;;;;;;2.60;0.30;;;;;;;13.38;70.87;101594.97;7389080;19;20014;-83
2022/09/18 05:08:33;;;;;;;1.25;0.20;;;;;;;13.38;70.58;101594.97;7390728;19;20006;-82
2022/09/18 05:11:03;;;;;;;1.35;0.30;;;;;;;13.36;70.29;101589.00;7390240;19;20018;-83
2022/09/18 05:13:30;;;;;;;3.88;0.20;;;;;;;13.33;70.44;101586.66;7387202;19;20023;-83
2022/09/18 05:16:06;;;;;;;7.18;0.30;;;;;;;13.28;70.73;101595.06;7383583;19;20019;-83
2022/09/18 05:18:34;;;;;;;2.67;0.30;;;;;;;13.27;70.87;101598.66;7381784;19;20076;-83
2022/09/18 05:21:02;;;;;;;2.53;0.32;;;;;;;13.27;70.83;101598.66;7383427;19;20025;-86
2022/09/18 05:23:30;;;;;;;2.08;0.50;;;;;;;13.26;70.41;101589.06;7383453;19;20015;-84
2022/09/18 05:26:12;;;;;;;2.83;0.30;;;;;;;13.25;70.92;101591.88;7384625;19;20014;-84
2022/09/18 05:28:40;;;;;;;2.28;0.28;;;;;;;13.22;70.83;101594.81;7384305;19;20026;-83
2022/09/18 05:31:07;;;;;;;2.88;0.28;;;;;;;13.21;71.20;101590.50;7382523;19;20032;-84
2022/09/18 05:33:35;;;;;;;3.38;0.20;;;;;;;13.19;71.07;101588.03;7382217;19;20043;-84
2022/09/18 05:36:04;;;;;;;1.90;0.45;;;;;;;13.17;71.22;101597.09;7382976;19;20014;-84
2022/09/18 05:38:31;;;;;;;0.52;0.20;;;;;;;13.15;71.28;101597.25;7386449;19;20020;-84
2022/09/18 05:41:03;;;;;;;0.88;0.20;;;;;;;13.14;71.25;101594.75;7385061;19;20297;-84
2022/09/18 05:43:30;;;;;;;2.55;0.38;;;;;;;13.15;71.56;101589.31;7381484;19;20614;-85
2022/09/18 05:46:09;;;;;;;1.63;0.28;;;;;;;13.13;71.84;101601.84;7381822;19;20014;-84
2022/09/18 05:48:36;;;;;;;1.40;0.30;;;;;;;13.15;72.07;101605.19;7379512;19;20010;-84
2022/09/18 05:51:04;;;;;;;3.20;0.60;;;;;;;13.15;71.97;101599.91;7383369;19;20056;-84
2022/09/18 05:53:31;;;;;;;1.10;0.30;;;;;;;13.15;72.14;101607.81;7382332;19;20404;-83
2022/09/18 05:56:04;;;;;;;1.45;0.28;;;;;;;13.15;72.09;101612.28;7380730;19;20021;-84
2022/09/18 05:58:31;;;;;;;5.85;0.30;;;;;;;13.14;71.60;101621.19;7384420;19;20014;-84
2022/09/18 06:01:00;;;;;;;2.00;0.20;;;;;;;13.14;71.71;101613.25;7381209;19;20026;-84
2022/09/18 06:03:27;;;;;;;3.17;0.20;;;;;;;13.13;72.11;101609.78;7382208;19;20116;-83
2022/09/18 06:06:04;;;;;;;0.93;0.30;;;;;;;13.15;71.98;101618.41;7383828;19;20472;-84
2022/09/18 06:08:37;;;;;;;2.28;0.28;;;;;;;13.16;71.85;101613.91;7381548;19;20011;-83
2022/09/18 06:11:04;;;;;;;1.27;0.30;;;;;;;13.16;71.71;101614.75;7386283;19;20011;-83
2022/09/18 06:13:32;;;;;;;2.35;0.30;;;;;;;13.18;71.42;101623.38;7386175;19;20291;-83
2022/09/18 06:16:10;;;;;;;1.73;0.30;;;;;;;13.17;71.49;101621.69;7383426;19;20203;-82
2022/09/18 06:18:37;;;;;;;0.65;0.25;;;;;;;13.21;71.70;101619.56;7384616;19;20089;-83
2022/09/18 06:21:04;;;;;;;1.13;0.20;;;;;;;13.25;71.87;101626.25;7385741;19;20022;-83
2022/09/18 06:23:32;;;;;;;1.13;0.28;;;;;;;13.25;71.85;101620.97;7385084;19;20022;-83
2022/09/18 06:26:10;;;;;;;1.90;0.30;;;;;;;13.27;71.79;101621.63;7387374;19;20027;-82
2022/09/18 06:28:41;;;;;;;3.95;0.60;;;;;;;13.27;71.24;101632.19;7387641;19;20500;-83
2022/09/18 06:31:09;;;;;;;3.25;1.13;;;;;;;13.29;71.29;101632.91;7386871;19;20018;-84
2022/09/18 06:33:36;;;;;;;1.75;0.35;;;;;;;13.32;72.37;101635.22;7384823;19;20604;-83
2022/09/18 06:36:13;;;;;;;1.77;0.30;;;;;;;13.32;71.05;101626.47;7389548;19;20018;-84
2022/09/18 06:38:40;;;;;;;3.28;0.40;;;;;;;13.33;71.36;101638.69;7386961;19;20493;-83
2022/09/18 06:41:10;;;;;;;3.30;0.40;;;;;;;13.31;71.26;101644.13;7387497;19;20018;-83
2022/09/18 06:43:37;;;;;;;1.98;0.40;;;;;;;13.28;70.89;101641.78;7385074;19;20015;-83
2022/09/18 06:46:06;;;;;;;2.15;0.30;;;;;;;13.27;71.33;101640.13;7384900;19;20443;-83
2022/09/18 06:48:35;;;;;;;1.33;0.40;;;;;;;13.30;71.46;101645.13;7379319;19;20475;-84
2022/09/18 06:51:02;;;;;;;2.90;0.32;;;;;;;13.35;71.28;101644.69;7384120;19;20392;-84
2022/09/18 06:53:29;;;;;;;1.10;0.30;;;;;;;13.36;70.85;101643.69;7382620;19;20585;-84
2022/09/18 06:56:06;;;;;;;1.00;0.25;;;;;;;13.36;70.60;101649.78;7382756;19;20019;-84
2022/09/18 06:58:33;;;;;;;2.50;0.40;;;;;;;13.35;70.63;101636.75;7386717;19;20010;-83
2022/09/18 07:01:01;;;;;;;3.03;0.30;;;;;;;13.32;70.68;101645.78;7385073;19;20435;-83
2022/09/18 07:03:28;;;;;;;2.13;0.40;;;;;;;13.32;70.86;101644.97;7383585;19;20486;-85
2022/09/18 07:06:14;;;;;;;0.90;0.30;;;;;;;13.31;70.41;101638.03;7386195;19;20011;-83
2022/09/18 07:08:42;;;;;;;2.28;0.30;;;;;;;13.32;70.58;101637.88;7384374;19;20010;-84
2022/09/18 07:11:10;;;;;;;0.95;0.20;;;;;;;13.31;70.51;101643.31;7385068;19;20007;-85
2022/09/18 07:13:37;;;;;;;2.10;0.20;;;;;;;13.32;70.68;101642.31;7385038;19;20024;-86
2022/09/18 07:16:05;;;;;;;1.55;0.20;;;;;;;13.33;70.82;101636.88;7383109;19;20018;-84
2022/09/18 07:18:33;;;;;;;2.47;0.40;;;;;;;13.39;71.47;101632.81;7384132;19;20015;-83
2022/09/18 07:21:00;;;;;;;4.30;0.40;;;;;;;13.43;71.18;101629.72;7385929;19;20014;-85
2022/09/18 07:23:30;;;;;;;4.38;0.32;;;;;;;13.48;70.30;101629.25;7384053;19;20440;-84
2022/09/18 07:26:13;;;;;;;2.45;0.30;;;;;;;13.51;70.03;101635.06;7387566;19;20010;-84
2022/09/18 07:28:42;;;;;;;3.65;0.30;;;;;;;13.52;69.96;101631.44;7393611;19;20456;-83
2022/09/18 07:31:09;;;;;;;2.80;0.35;;;;;;;13.54;70.05;101632.13;7389548;19;20036;-83
2022/09/18 07:33:36;;;;;;;0.93;0.40;;;;;;;13.58;70.77;101632.66;7387159;19;20017;-82
2022/09/18 07:36:13;;;;;;;4.40;0.32;;;;;;;13.62;70.79;101628.72;7378322;19;20015;-83
2022/09/18 07:38:42;;;;;;;2.92;0.47;;;;;;;13.64;69.67;101627.59;7388539;19;20320;-84
2022/09/18 07:41:18;;;;;;;5.25;0.40;;;;;;;13.67;69.98;101626.44;7390612;19;20030;-82
2022/09/18 07:43:49;;;;;;;8.05;0.40;;;;;;;13.70;69.85;101631.44;7388087;19;20018;-84
2022/09/18 07:46:16;;;;;;;1.85;0.30;;;;;;;13.72;69.78;101626.81;7389462;19;20010;-83
2022/09/18 07:48:43;;;;;;;4.78;0.65;;;;;;;13.76;69.97;101617.59;7383452;19;20007;-83
2022/09/18 07:51:11;;;;;;;1.20;0.32;;;;;;;13.82;70.44;101626.72;7385017;19;20014;-83
2022/09/18 07:53:40;;;;;;;1.52;0.20;;;;;;;13.87;69.63;101627.09;7387391;19;20013;-84
2022/09/18 07:56:12;;;;;;;5.97;0.30;;;;;;;13.89;69.11;101630.41;7388136;19;20479;-84
2022/09/18 07:58:41;;;;;;;2.83;0.30;;;;;;;13.88;69.07;101624.28;7389352;19;20091;-84
2022/09/18 08:01:08;;;;;;;2.58;0.22;;;;;;;13.91;69.68;101625.81;7388970;19;20014;-83
2022/09/18 08:03:36;;;;;;;2.53;0.40;;;;;;;13.91;69.84;101620.53;7387951;19;20543;-84
2022/09/18 08:06:07;;;;;;;1.40;0.30;;;;;;;13.96;69.87;101623.53;7389872;19;20354;-84
2022/09/18 08:08:37;;;;;;;3.53;0.40;;;;;;;13.99;69.44;101618.75;7389924;19;20374;-83
2022/09/18 08:11:05;;;;;;;1.40;0.40;;;;;;;14.06;69.13;101624.25;7388521;19;20018;-83
2022/09/18 08:13:32;;;;;;;5.03;0.60;;;;;;;14.10;69.21;101621.16;7386020;19;20018;-84
2022/09/18 08:16:09;;;;;;;8.68;0.80;;;;;;;14.14;69.29;101625.13;7384422;19;20027;-84
2022/09/18 08:18:39;;;;;;;2.42;1.00;;;;;;;14.18;69.16;101628.28;7385440;19;20805;-84
2022/09/18 08:21:06;;;;;;;3.00;0.40;;;;;;;14.26;69.43;101617.78;7386012;19;20019;-84
2022/09/18 08:23:36;;;;;;;1.00;0.40;;;;;;;14.32;68.58;101627.75;7387604;19;20017;-84
2022/09/18 08:26:07;;;;;;;33.58;1.77;;;;;;;14.38;68.35;101628.94;7388290;19;20521;-83
2022/09/18 08:28:34;;;;;;;11.43;0.57;;;;;;;14.42;68.38;101628.47;7391351;19;20028;-86
2022/09/18 08:31:05;;;;;;;1.58;0.28;;;;;;;14.46;67.55;101623.69;7386416;19;20070;-83
2022/09/18 08:33:52;;;;;;;2.75;0.20;;;;;;;14.51;67.52;101627.53;7385622;19;20248;-82
2022/09/18 08:36:20;;;;;;;0.93;0.10;;;;;;;14.60;67.19;101625.75;7385552;19;20020;-83
2022/09/18 08:38:51;;;;;;;4.40;0.40;;;;;;;14.65;66.76;101623.44;7383939;19;20014;-82
2022/09/18 08:41:29;;;;;;;2.70;0.68;;;;;;;14.73;66.30;101620.81;7387807;19;20235;-81
2022/09/18 08:44:09;;;;;;;2.53;0.20;;;;;;;14.80;65.57;101631.59;7389721;19;20022;-84
2022/09/18 08:46:44;;;;;;;1.40;0.20;;;;;;;14.82;65.34;101630.47;7389141;19;20010;-83
2022/09/18 08:49:32;;;;;;;1.23;0.20;;;;;;;14.90;64.97;101641.09;7386739;19;20103;-83
2022/09/18 08:52:10;;;;;;;0.95;0.20;;;;;;;14.91;64.96;101636.63;7384243;19;20010;-85
2022/09/18 08:55:07;;;;;;;1.05;0.20;;;;;;;14.93;65.21;101632.78;7385212;19;20019;-83
2022/09/18 08:57:42;;;;;;;0.70;0.20;;;;;;;14.95;65.11;101645.91;7385684;19;20511;-84
2022/09/18 09:00:25;;;;;;;1.10;0.15;;;;;;;15.00;65.37;101643.59;7392409;19;20385;-84
2022/09/18 09:02:59;;;;;;;0.65;0.10;;;;;;;15.02;65.32;101638.13;7390230;19;20018;-85
2022/09/18 09:05:34;;;;;;;1.42;0.20;;;;;;;15.05;65.42;101635.16;7380597;19;20048;-83
2022/09/18 09:08:16;;;;;;;1.77;0.20;;;;;;;15.08;65.75;101635.69;7389353;19;20010;-86
2022/09/18 09:10:54;;;;;;;1.35;0.20;;;;;;;15.14;65.20;101629.69;7390331;19;20014;-86
2022/09/18 09:13:48;;;;;;;1.42;0.20;;;;;;;15.18;64.77;101631.06;7388750;19;20118;-86
2022/09/18 09:16:42;;;;;;;2.50;0.40;;;;;;;15.22;64.61;101621.78;7384977;19;20046;-85
2022/09/18 09:19:39;;;;;;;2.33;0.20;;;;;;;15.26;64.65;101617.81;7390067;19;20068;-84
2022/09/18 09:22:17;;;;;;;0.95;0.20;;;;;;;15.33;64.91;101618.81;7387767;19;20023;-86
2022/09/18 09:25:06;;;;;;;3.25;0.20;;;;;;;15.38;65.26;101627.13;7389264;19;20364;-85
2022/09/18 09:27:41;;;;;;;0.38;0.10;;;;;;;15.44;64.55;101614.19;7387806;19;20082;-85
2022/09/18 09:30:17;;;;;;;0.22;0.10;;;;;;;15.50;63.63;101611.69;7388626;19;20019;-86
2022/09/18 09:33:10;;;;;;;2.58;0.77;;;;;;;15.56;63.41;101620.84;7388704;19;20423;-85
2022/09/18 09:35:45;;;;;;;;;;;;;;;15.67;62.84;101626.66;7388579;19;20039;-80
2022/09/18 09:38:35;;;;;;;1.48;0.30;;;;;;;15.67;62.13;101617.88;7385589;19;19918;-85
2022/09/18 09:41:17;;;;;;;1.30;0.20;;;;;;;15.69;62.70;101619.38;7386782;19;20015;-83
2022/09/18 09:43:53;;;;;;;1.17;0.10;;;;;;;15.74;62.89;101621.53;7387637;19;20006;-83
2022/09/18 09:47:01;;;;;;;0.35;0.10;;;;;;;15.84;61.61;101619.53;7385480;19;20011;-86
2022/09/18 09:49:39;;;;;;;1.42;0.15;;;;;;;15.91;61.79;101620.50;7383670;19;20400;-86
2022/09/18 09:52:20;;;;;;;1.20;0.10;;;;;;;15.95;61.90;101615.69;7381844;19;20014;-85
2022/09/18 09:55:18;;;;;;;3.13;0.10;;;;;;;16.05;60.06;101613.69;7381379;19;20573;-85
2022/09/18 09:58:00;;;;;;;0.73;0.08;;;;;;;16.07;60.19;101607.19;7383153;19;20013;-84
2022/09/18 10:00:36;;;;;;;1.20;0.03;;;;;;;16.11;60.31;101607.69;7387445;19;20010;-84
2022/09/18 10:03:41;;;;;;;1.75;0.47;;;;;;;16.20;59.70;101612.00;7381691;19;20472;-87
2022/09/18 10:06:36;;;;;;;1.70;0.30;;;;;;;16.24;59.67;101605.34;7385323;19;20016;-85
2022/09/18 10:09:14;;;;;;;0.70;0.10;;;;;;;16.26;59.57;101605.97;7386837;19;20073;-84
2022/09/18 10:11:57;;;;;;;2.90;0.20;;;;;;;16.39;58.11;101606.28;7387843;19;20372;-82
2022/09/18 10:14:28;;;;;;;1.40;0.25;;;;;;;16.42;58.81;101607.75;7384860;19;20017;-81
2022/09/18 10:16:56;;;;;;;0.98;0.10;;;;;;;16.45;58.47;101616.22;7383499;19;20113;-83
2022/09/18 10:19:33;;;;;;;1.70;0.10;;;;;;;16.49;58.68;101616.72;7385071;19;20094;-84
2022/09/18 10:22:05;;;;;;;0.63;0.05;;;;;;;16.56;60.50;101617.66;7386647;19;20021;-84
2022/09/18 10:24:47;;;;;;;0.77;0.10;;;;;;;16.65;58.47;101614.03;7384869;19;20021;-84
2022/09/18 10:27:15;;;;;;;0.52;0.10;;;;;;;16.68;57.97;101609.19;7384554;19;20010;-84
2022/09/18 10:29:43;;;;;;;2.05;0.10;;;;;;;16.69;57.73;101610.00;7386491;19;20399;-83
2022/09/18 10:32:13;;;;;;;1.75;0.10;;;;;;;16.75;57.49;101605.84;7387362;19;20362;-85
2022/09/18 10:34:48;;;;;;;3.90;0.10;;;;;;;16.78;58.22;101614.28;7386230;19;20362;-83
2022/09/18 10:37:27;;;;;;;0.70;0.10;;;;;;;16.85;60.49;101609.94;7386952;19;20010;-84
2022/09/18 10:40:00;;;;;;;2.05;0.20;;;;;;;16.88;57.81;101614.06;7380066;19;20014;-82
2022/09/18 10:42:28;;;;;;;;;;;;;;;16.89;57.22;101618.38;7384632;19;20349;-81
2022/09/18 10:45:01;;;;;;;0.85;0.20;;;;;;;16.87;57.51;101615.06;7382234;19;20292;-82
2022/09/18 10:47:30;;;;;;;;;;;;;;;16.92;57.08;101615.34;7385428;19;20014;-83
2022/09/18 10:50:10;;;;;;;1.25;0.10;;;;;;;16.93;56.27;101625.81;7385409;19;20298;-84
2022/09/18 10:52:37;;;;;;;1.67;0.10;;;;;;;16.88;56.47;101625.53;7384699;19;20012;-84
2022/09/18 10:55:19;;;;;;;0.63;0.10;;;;;;;16.82;56.56;101620.91;7384106;19;20021;-83
2022/09/18 10:57:55;;;;;;;0.70;0.10;;;;;;;16.80;56.54;101624.75;7387069;19;20365;-85
2022/09/18 11:00:23;;;;;;;0.40;0.10;;;;;;;16.74;56.89;101617.47;7386741;19;20018;-85
2022/09/18 11:02:59;;;;;;;1.00;0.15;;;;;;;16.74;57.46;101620.94;7397041;19;20022;-84
2022/09/18 11:05:35;;;;;;;1.30;0.22;;;;;;;16.79;58.77;101618.59;7401545;19;20035;-85
2022/09/18 11:08:14;;;;;;;1.55;0.10;;;;;;;16.90;58.41;101618.22;7397148;19;20449;-85
2022/09/18 11:10:47;;;;;;;2.05;0.20;;;;;;;17.01;58.52;101615.16;7397241;19;20040;-83
2022/09/18 11:13:22;;;;;;;0.65;0.10;;;;;;;17.13;57.64;101602.28;7395819;19;20230;-83
2022/09/18 11:16:02;;;;;;;1.08;0.00;;;;;;;17.25;56.32;101605.38;7400534;19;20109;-84
2022/09/18 11:18:31;;;;;;;1.35;0.10;;;;;;;17.32;55.06;101601.78;7397767;19;20026;-84
2022/09/18 11:21:01;;;;;;;1.40;0.30;;;;;;;17.35;55.75;101595.31;7399449;19;20035;-84
2022/09/18 11:23:34;;;;;;;1.40;0.20;;;;;;;17.36;56.92;101596.97;7401981;19;20088;-85
2022/09/18 11:26:09;;;;;;;;;;;;;;;17.41;58.06;101595.44;7400186;19;20006;-84
2022/09/18 11:28:38;;;;;;;1.65;0.10;;;;;;;17.42;55.99;101591.75;7397708;19;19954;-84
2022/09/18 11:31:14;;;;;;;1.08;0.10;;;;;;;17.42;55.43;101594.41;7398100;19;20032;-86
2022/09/18 11:33:44;;;;;;;1.48;0.10;;;;;;;17.45;54.95;101588.75;7395968;19;20011;-84
2022/09/18 11:36:14;;;;;;;1.67;0.00;;;;;;;17.49;54.22;101602.50;7397874;19;20353;-86
2022/09/18 11:38:44;;;;;;;0.60;0.10;;;;;;;17.53;53.42;101587.84;7396372;19;20535;-85
2022/09/18 11:41:12;;;;;;;2.47;0.10;;;;;;;17.61;52.14;101592.31;7395733;19;20010;-83
2022/09/18 11:43:42;;;;;;;0.30;0.10;;;;;;;17.65;53.01;101593.59;7400105;19;20011;-84
2022/09/18 11:46:32;;;;;;;1.70;0.30;;;;;;;17.71;53.00;101587.56;7398121;19;20340;-87
2022/09/18 11:49:08;;;;;;;1.48;0.10;;;;;;;17.79;52.46;101588.28;7395544;19;20531;-85
2022/09/18 11:52:07;;;;;;;1.17;0.10;;;;;;;17.83;52.02;101599.41;7398189;19;20019;-85
2022/09/18 11:55:13;;;;;;;0.00;0.00;;;;;;;17.85;50.49;101595.56;7392962;19;20018;-85
2022/09/18 11:57:54;;;;;;;0.40;0.10;;;;;;;17.79;51.37;101593.63;7396592;19;20011;-85